Time;durP1;ratioP1;P1;durP2;ratioP2;P2;SDS_P1;SDS_P2;PMS_P1;PMS_P2;Temp;Humidity;BMP_temperature;BMP_pressure;BME280_temperature;BME280_humidity;BME280_pressure;Samples;Min_cycle;Max_cycle;Signal;HPM_P1;HPM_P2
2021/09/05 00:01:44;;;;;;;23.18;17.25;;;;;;;8.05;79.39;100944.66;1836145;77;21521;-69
2021/09/05 00:04:11;;;;;;;23.80;17.40;;;;;;;7.98;79.52;100948.23;1801207;79;21529;-69
2021/09/05 00:06:38;;;;;;;20.02;15.05;;;;;;;7.95;79.68;100951.87;1796251;78;21112;-69
2021/09/05 00:09:05;;;;;;;22.30;16.97;;;;;;;7.88;80.00;100952.50;1791898;78;21113;-69
2021/09/05 00:11:32;;;;;;;23.62;16.17;;;;;;;7.77;80.54;100955.44;1779329;78;21013;-69
2021/09/05 00:14:00;;;;;;;20.75;16.55;;;;;;;7.70;80.89;100954.70;1845971;77;21077;-69
2021/09/05 00:16:30;;;;;;;24.45;16.97;;;;;;;7.67;81.10;100955.99;1835767;76;21685;-69
2021/09/05 00:18:59;;;;;;;22.48;16.35;;;;;;;7.64;81.37;100957.78;1836621;76;21035;-69
2021/09/05 00:21:28;;;;;;;22.20;15.50;;;;;;;7.64;81.61;100963.09;1833851;76;21031;-70
2021/09/05 00:23:55;;;;;;;25.23;16.62;;;;;;;7.64;81.77;100955.12;1833337;76;21002;-69
2021/09/05 00:26:21;;;;;;;23.18;16.55;;;;;;;7.65;82.01;100966.03;1841184;76;21015;-70
2021/09/05 00:28:49;;;;;;;23.65;16.70;;;;;;;7.65;82.18;100963.38;1846413;77;21053;-70
2021/09/05 00:31:16;;;;;;;21.40;15.78;;;;;;;7.64;82.38;100969.74;1835039;76;21073;-70
2021/09/05 00:33:44;;;;;;;22.75;16.95;;;;;;;7.63;82.57;100965.97;1835282;76;21584;-70
2021/09/05 00:36:12;;;;;;;21.30;15.30;;;;;;;7.63;82.84;100972.61;1841940;76;21026;-70
2021/09/05 00:38:41;;;;;;;22.80;15.93;;;;;;;7.63;83.03;100969.95;1839010;76;21120;-70
2021/09/05 00:41:08;;;;;;;22.05;15.38;;;;;;;7.64;83.12;100968.94;1823581;76;21446;-70
2021/09/05 00:44:03;;;;;;;20.62;15.18;;;;;;;7.63;83.18;100970.76;1843344;77;21128;-70
2021/09/05 00:46:32;;;;;;;20.75;14.93;;;;;;;7.62;83.19;100971.80;1833657;76;21866;-70
2021/09/05 00:48:59;;;;;;;19.98;14.50;;;;;;;7.60;83.26;100969.91;1840771;76;20984;-70
2021/09/05 00:51:32;;;;;;;20.08;15.58;;;;;;;7.60;83.33;100979.22;1840718;76;21031;-69
2021/09/05 00:54:04;;;;;;;22.80;15.78;;;;;;;7.59;83.44;100981.56;1831694;77;21328;-69
2021/09/05 00:56:33;;;;;;;22.67;15.80;;;;;;;7.59;83.55;100975.44;1831529;76;21030;-70
2021/09/05 00:59:07;;;;;;;20.02;14.73;;;;;;;7.60;83.58;100983.20;1839311;76;21498;-70
2021/09/05 01:01:38;;;;;;;21.25;14.78;;;;;;;7.59;83.67;100981.56;1838784;76;20999;-70
2021/09/05 01:04:04;;;;;;;19.10;14.68;;;;;;;7.58;83.77;100991.11;1840592;77;21110;-69
2021/09/05 01:06:34;;;;;;;17.90;13.25;;;;;;;7.55;83.85;100984.91;1824129;76;21022;-70
2021/09/05 01:09:02;;;;;;;18.12;13.48;;;;;;;7.51;83.94;100988.54;1838654;77;21062;-71
2021/09/05 01:11:34;;;;;;;18.60;13.70;;;;;;;7.43;83.87;100987.51;1838672;76;21995;-70
2021/09/05 01:14:04;;;;;;;17.87;13.48;;;;;;;7.37;83.92;100989.24;1806193;78;21635;-70
2021/09/05 01:16:34;;;;;;;17.15;12.45;;;;;;;7.34;83.94;100987.52;1797336;78;21050;-70
2021/09/05 01:19:12;;;;;;;15.98;12.25;;;;;;;7.31;83.95;100995.45;1762158;79;21070;-70
2021/09/05 01:22:00;;;;;;;;;;;;;;;7.28;83.88;100996.70;1776705;79;21035;-70
2021/09/05 01:24:45;;;;;;;16.05;11.65;;;;;;;7.25;83.92;100999.00;1776737;78;21152;-70
2021/09/05 01:27:30;;;;;;;16.82;11.90;;;;;;;7.19;84.02;101004.68;1789330;78;21517;-71
2021/09/05 01:30:15;;;;;;;16.37;11.43;;;;;;;7.18;84.07;101008.91;1792462;78;21097;-70
2021/09/05 01:32:47;;;;;;;15.25;11.60;;;;;;;7.13;84.08;101009.55;1787786;78;21257;-70
2021/09/05 01:35:35;;;;;;;15.03;11.35;;;;;;;7.12;84.06;101007.13;1828109;76;21015;-70
2021/09/05 01:38:15;;;;;;;13.50;10.48;;;;;;;7.07;84.10;101006.98;1838814;76;21065;-70
2021/09/05 01:40:46;;;;;;;14.05;10.68;;;;;;;7.02;84.08;101003.67;1779635;77;21569;-70
2021/09/05 01:43:30;;;;;;;12.33;9.88;;;;;;;6.97;84.09;101009.63;1776113;80;21045;-70
2021/09/05 01:46:02;;;;;;;14.07;10.60;;;;;;;6.94;84.08;101009.27;1767028;78;21170;-70
2021/09/05 01:48:48;;;;;;;13.53;9.58;;;;;;;6.91;84.08;101013.69;1795155;78;21595;-70
2021/09/05 01:51:34;;;;;;;14.25;10.72;;;;;;;6.88;84.06;101012.80;1788393;79;21154;-70
2021/09/05 01:54:19;;;;;;;13.22;10.00;;;;;;;6.84;84.04;101021.72;1791650;78;21120;-69
2021/09/05 01:57:04;;;;;;;15.03;10.28;;;;;;;6.78;83.99;101022.63;1791123;78;21454;-69
2021/09/05 01:59:41;;;;;;;13.90;10.10;;;;;;;6.72;84.06;101021.66;1797183;78;21042;-69
2021/09/05 02:02:12;;;;;;;15.83;10.60;;;;;;;6.70;84.11;101029.02;1765355;78;21485;-69
2021/09/05 02:04:57;;;;;;;13.55;10.45;;;;;;;6.69;84.19;101026.08;1837095;76;21147;-68
2021/09/05 02:07:27;;;;;;;13.93;9.83;;;;;;;6.68;84.34;101027.61;1825960;76;21568;-70
2021/09/05 02:10:09;;;;;;;13.03;9.73;;;;;;;6.66;84.58;101023.86;1828246;77;21526;-69
2021/09/05 02:12:44;;;;;;;13.05;9.75;;;;;;;6.67;84.83;101029.45;1791572;78;21033;-70
2021/09/05 02:15:15;;;;;;;13.00;9.80;;;;;;;6.67;84.92;101032.63;1791965;78;20972;-69
2021/09/05 02:17:51;;;;;;;12.75;9.43;;;;;;;6.66;84.95;101032.34;1765962;78;22565;-69
2021/09/05 02:20:24;;;;;;;13.60;9.53;;;;;;;6.65;84.97;101038.17;1784642;78;21561;-70
2021/09/05 02:22:52;;;;;;;11.88;9.28;;;;;;;6.64;85.01;101037.05;1763891;78;21063;-70
2021/09/05 02:25:24;;;;;;;13.05;9.30;;;;;;;6.64;85.14;101037.86;1765504;78;21089;-70
2021/09/05 02:28:09;;;;;;;10.50;8.08;;;;;;;6.63;85.23;101034.91;1782856;78;21093;-70
2021/09/05 02:30:40;;;;;;;12.00;9.20;;;;;;;6.60;85.29;101040.66;1806218;78;21302;-70
2021/09/05 02:33:11;;;;;;;12.18;8.78;;;;;;;6.58;85.32;101041.38;1757955;79;21031;-69
2021/09/05 02:35:44;;;;;;;10.48;8.25;;;;;;;6.56;85.40;101040.28;1774116;79;21114;-70
2021/09/05 02:38:15;;;;;;;12.70;8.10;;;;;;;6.56;85.46;101043.45;1783095;78;21030;-69
2021/09/05 02:40:59;;;;;;;11.75;8.13;;;;;;;6.55;85.55;101042.66;1794165;79;21113;-69
2021/09/05 02:43:27;;;;;;;10.93;8.43;;;;;;;6.56;85.61;101047.44;1779936;79;22180;-70
2021/09/05 02:46:14;;;;;;;11.65;8.28;;;;;;;6.55;85.78;101047.15;1793415;78;21097;-69
2021/09/05 02:48:46;;;;;;;12.87;8.50;;;;;;;6.56;86.14;101054.08;1790676;78;21679;-69
2021/09/05 02:51:24;;;;;;;10.85;8.30;;;;;;;6.56;86.14;101054.08;1763032;78;21432;-71
2021/09/05 02:53:52;;;;;;;11.57;8.05;;;;;;;6.56;86.19;101052.23;1793996;78;21057;-71
2021/09/05 02:56:39;;;;;;;12.50;7.95;;;;;;;6.58;86.31;101059.95;1721113;81;21478;-71
2021/09/05 02:59:07;;;;;;;11.50;8.43;;;;;;;6.58;86.50;101058.62;1711747;81;21054;-71
2021/09/05 03:01:36;;;;;;;10.72;7.80;;;;;;;6.57;86.58;101061.80;1744989;79;21027;-71
2021/09/05 03:04:16;;;;;;;12.18;7.35;;;;;;;6.57;86.63;101062.33;1794921;78;21492;-71
2021/09/05 03:07:02;;;;;;;10.28;7.97;;;;;;;6.55;86.62;101066.54;1775412;79;21034;-70
2021/09/05 03:09:40;;;;;;;9.88;7.53;;;;;;;6.54;86.65;101063.56;1781938;78;21141;-71
2021/09/05 03:12:15;;;;;;;9.48;7.05;;;;;;;6.53;86.70;101069.91;1779903;79;21077;-70
2021/09/05 03:14:43;;;;;;;14.10;7.53;;;;;;;6.52;86.71;101073.61;1792296;78;21030;-69
2021/09/05 03:17:12;;;;;;;11.05;7.47;;;;;;;6.49;86.74;101078.53;1800471;79;21561;-69
2021/09/05 03:19:44;;;;;;;;;;;;;;;6.40;86.77;101071.34;1800641;78;21089;-70
2021/09/05 03:22:19;;;;;;;11.18;6.75;;;;;;;6.34;86.95;101076.19;1793168;78;21612;-70
2021/09/05 03:24:50;;;;;;;13.15;7.60;;;;;;;6.28;87.12;101080.51;1787087;78;21062;-70
2021/09/05 03:27:21;;;;;;;10.08;7.12;;;;;;;6.25;87.30;101080.13;1761003;79;21033;-70
2021/09/05 03:30:07;;;;;;;11.40;7.47;;;;;;;6.26;87.42;101083.09;1829835;76;21478;-70
2021/09/05 03:32:42;;;;;;;10.43;6.78;;;;;;;6.27;87.52;101084.20;1774311;77;20999;-70
2021/09/05 03:35:14;;;;;;;10.28;7.35;;;;;;;6.28;87.55;101087.66;1829837;76;22146;-70
2021/09/05 03:37:57;;;;;;;9.45;6.95;;;;;;;6.28;87.60;101089.80;1824313;76;21104;-70
2021/09/05 03:40:29;;;;;;;11.08;7.37;;;;;;;6.29;87.65;101091.95;1829020;76;21089;-70
2021/09/05 03:42:58;;;;;;;10.78;7.58;;;;;;;6.34;87.72;101097.41;1826175;76;21529;-70
2021/09/05 03:45:42;;;;;;;9.45;7.75;;;;;;;6.34;87.80;101095.57;1835517;76;21648;-70
2021/09/05 03:48:28;;;;;;;12.07;8.28;;;;;;;6.38;87.87;101101.25;1816445;77;21170;-70
2021/09/05 03:50:57;;;;;;;12.23;7.47;;;;;;;6.40;87.99;101104.52;1835579;76;21013;-70
2021/09/05 03:53:24;;;;;;;11.45;9.03;;;;;;;6.45;88.09;101108.67;1839386;77;21080;-70
2021/09/05 03:55:56;;;;;;;12.88;9.53;;;;;;;6.47;88.23;101111.91;1787410;78;21010;-70
2021/09/05 03:58:24;;;;;;;15.78;10.98;;;;;;;6.53;88.41;101108.91;1771302;79;21082;-70
2021/09/05 04:00:51;;;;;;;17.40;12.20;;;;;;;6.60;88.68;101109.67;1785884;78;22140;-70
2021/09/05 04:03:20;;;;;;;13.85;9.75;;;;;;;6.68;88.87;101105.42;1802332;78;21437;-70
2021/09/05 04:05:48;;;;;;;13.75;9.68;;;;;;;6.77;89.04;101112.58;1781293;78;21524;-70
2021/09/05 04:08:15;;;;;;;12.68;8.95;;;;;;;6.86;89.11;101117.11;1779161;79;21096;-70
2021/09/05 04:10:42;;;;;;;13.05;9.85;;;;;;;6.91;89.16;101114.59;1782560;78;21174;-70
2021/09/05 04:13:11;;;;;;;11.63;8.55;;;;;;;6.98;89.21;101120.16;1798990;78;21144;-70
2021/09/05 04:15:40;;;;;;;13.43;9.48;;;;;;;7.05;89.25;101124.08;1790886;78;21031;-70
2021/09/05 04:18:08;;;;;;;13.25;9.53;;;;;;;7.16;89.32;101127.84;1805580;78;21053;-70
2021/09/05 04:20:35;;;;;;;14.33;8.98;;;;;;;7.23;89.35;101125.93;1778536;78;21048;-72
2021/09/05 04:23:02;;;;;;;14.05;10.10;;;;;;;7.33;89.43;101128.08;1837689;76;21041;-71
2021/09/05 04:25:29;;;;;;;12.25;8.88;;;;;;;7.43;89.53;101127.04;1789999;78;21982;-71
2021/09/05 04:27:56;;;;;;;12.50;8.93;;;;;;;7.53;89.65;101129.98;1796083;78;21074;-71
2021/09/05 04:30:22;;;;;;;13.45;9.65;;;;;;;7.62;89.74;101132.65;1794965;78;21057;-71
2021/09/05 04:32:51;;;;;;;12.33;9.60;;;;;;;7.70;89.83;101135.02;1845825;76;21477;-71
2021/09/05 04:35:18;;;;;;;13.95;10.65;;;;;;;7.81;90.04;101131.30;1839044;77;21047;-71
2021/09/05 04:37:44;;;;;;;13.80;10.43;;;;;;;7.95;90.37;101136.73;1838344;76;21101;-71
2021/09/05 04:40:12;;;;;;;12.50;9.43;;;;;;;8.09;90.61;101134.70;1842465;76;21081;-71
2021/09/05 04:42:39;;;;;;;13.68;8.85;;;;;;;8.24;90.81;101135.11;1842228;77;21040;-71
2021/09/05 04:45:07;;;;;;;11.10;8.45;;;;;;;8.40;90.95;101137.67;1826582;76;21091;-71
2021/09/05 04:47:34;;;;;;;10.75;8.68;;;;;;;8.56;90.97;101137.54;1823111;76;21101;-70
2021/09/05 04:50:03;;;;;;;11.15;7.55;;;;;;;8.71;90.93;101143.74;1814500;77;21141;-70
2021/09/05 04:52:30;;;;;;;10.55;7.95;;;;;;;8.85;90.89;101145.13;1837673;76;21049;-70
2021/09/05 04:54:57;;;;;;;12.53;8.68;;;;;;;8.98;90.79;101138.24;1839894;77;21536;-71
2021/09/05 04:57:24;;;;;;;12.93;8.88;;;;;;;9.10;90.57;101141.73;1833116;76;20979;-70
2021/09/05 04:59:50;;;;;;;10.88;7.83;;;;;;;9.21;90.03;101140.61;1876640;76;21141;-70
2021/09/05 05:02:17;;;;;;;11.57;7.83;;;;;;;9.33;89.69;101146.75;1834017;76;21118;-71
2021/09/05 05:04:44;;;;;;;12.03;7.67;;;;;;;9.46;89.26;101148.36;1858735;76;21639;-71
2021/09/05 05:07:12;;;;;;;10.13;7.03;;;;;;;9.56;88.69;101146.70;1838151;76;21039;-71
2021/09/05 05:09:43;;;;;;;11.55;7.22;;;;;;;9.68;88.11;101146.69;1880639;76;21011;-70
2021/09/05 05:12:12;;;;;;;11.33;7.10;;;;;;;9.81;87.64;101146.41;1789563;79;21651;-70
2021/09/05 05:14:40;;;;;;;9.98;6.80;;;;;;;9.92;87.14;101152.75;1764008;79;21493;-71
2021/09/05 05:17:07;;;;;;;10.32;7.37;;;;;;;10.05;86.63;101147.12;1802504;78;21073;-70
2021/09/05 05:19:34;;;;;;;12.05;7.35;;;;;;;10.20;86.02;101156.45;1786813;78;21010;-70
2021/09/05 05:22:03;;;;;;;9.80;6.50;;;;;;;10.32;85.26;101154.58;1771697;78;21156;-70
2021/09/05 05:24:31;;;;;;;9.33;6.40;;;;;;;10.44;84.44;101155.33;1800229;78;21065;-70
2021/09/05 05:26:58;;;;;;;9.63;6.30;;;;;;;10.56;83.96;101152.57;1830829;76;21558;-70
2021/09/05 05:29:24;;;;;;;9.78;6.03;;;;;;;10.68;83.10;101147.16;1822573;76;21019;-71
2021/09/05 05:31:53;;;;;;;8.30;6.00;;;;;;;10.77;82.12;101147.05;1830645;77;21548;-71
2021/09/05 05:34:21;;;;;;;8.48;5.92;;;;;;;10.87;81.57;101149.88;1836719;76;21060;-71
2021/09/05 05:36:48;;;;;;;8.08;5.10;;;;;;;11.00;81.18;101149.53;1801696;78;21497;-70
2021/09/05 05:39:15;;;;;;;6.53;4.67;;;;;;;11.16;80.43;101145.75;1805579;78;21127;-71
2021/09/05 05:41:41;;;;;;;7.62;4.47;;;;;;;11.25;79.05;101142.41;1792487;79;21590;-70
2021/09/05 05:44:09;;;;;;;8.23;4.60;;;;;;;11.37;78.40;101148.97;1796800;78;20994;-71
2021/09/05 05:46:36;;;;;;;6.37;4.20;;;;;;;11.49;77.45;101152.34;1797789;78;21038;-70
2021/09/05 05:49:04;;;;;;;6.37;4.60;;;;;;;11.61;75.91;101146.05;1796012;78;21612;-69
2021/09/05 05:51:31;;;;;;;8.83;4.97;;;;;;;11.72;75.39;101146.47;1780733;78;21479;-70
2021/09/05 05:53:59;;;;;;;7.27;4.40;;;;;;;11.83;74.84;101144.18;1789391;78;21617;-70
2021/09/05 05:56:26;;;;;;;8.27;4.90;;;;;;;11.95;74.40;101152.11;1842830;76;21212;-70
2021/09/05 05:58:53;;;;;;;8.30;4.83;;;;;;;12.05;73.78;101147.41;1853088;76;21239;-70
2021/09/05 06:01:20;;;;;;;8.57;5.20;;;;;;;12.11;73.27;101155.73;1851347;76;21306;-70
2021/09/05 06:03:48;;;;;;;8.53;4.97;;;;;;;12.18;73.05;101155.84;1836347;76;21504;-70
2021/09/05 06:06:15;;;;;;;6.20;4.50;;;;;;;12.26;72.57;101157.23;1829193;76;21164;-69
2021/09/05 06:08:42;;;;;;;7.57;4.40;;;;;;;12.36;71.80;101157.33;1835527;76;21270;-70
2021/09/05 06:11:08;;;;;;;6.37;3.90;;;;;;;12.47;71.49;101164.95;1825768;76;21375;-70
2021/09/05 06:13:37;;;;;;;6.63;3.80;;;;;;;12.57;70.96;101166.88;1818866;77;21651;-70
2021/09/05 06:16:05;;;;;;;6.53;4.10;;;;;;;12.69;70.33;101168.87;1855043;76;21177;-70
2021/09/05 06:18:32;;;;;;;5.50;3.30;;;;;;;12.81;69.31;101168.17;1844083;76;22417;-71
2021/09/05 06:21:02;;;;;;;7.30;3.43;;;;;;;12.93;68.41;101167.17;1840183;76;21225;-69
2021/09/05 06:23:29;;;;;;;6.83;2.90;;;;;;;13.06;67.56;101172.08;1831603;77;21272;-70
2021/09/05 06:25:56;;;;;;;6.73;3.50;;;;;;;13.19;66.38;101176.19;1838857;76;21844;-70
2021/09/05 06:28:23;;;;;;;5.83;3.50;;;;;;;13.30;64.45;101182.74;1831923;77;21330;-70
2021/09/05 06:30:50;;;;;;;8.40;3.40;;;;;;;13.39;63.51;101183.04;1844166;77;21251;-70
2021/09/05 06:33:16;;;;;;;6.33;3.13;;;;;;;13.47;63.23;101176.39;1843578;77;21724;-69
2021/09/05 06:35:43;;;;;;;6.10;3.13;;;;;;;13.56;62.56;101182.34;1841455;76;21264;-70
2021/09/05 06:38:10;;;;;;;8.23;3.20;;;;;;;13.67;62.39;101179.16;1842301;77;21307;-70
2021/09/05 06:40:36;;;;;;;7.40;3.53;;;;;;;13.76;61.74;101180.28;1855409;76;21520;-70
2021/09/05 06:43:03;;;;;;;4.93;2.93;;;;;;;13.86;61.10;101186.77;1850599;76;21621;-70
2021/09/05 06:45:31;;;;;;;5.60;2.40;;;;;;;13.94;60.63;101181.67;1836782;76;21711;-70
2021/09/05 06:47:59;;;;;;;4.70;1.90;;;;;;;14.01;59.17;101187.59;1833140;77;38540;-70
2021/09/05 06:50:26;;;;;;;2.67;1.60;;;;;;;14.10;58.01;101180.38;1836574;77;21280;-70
2021/09/05 06:52:52;;;;;;;2.67;1.60;;;;;;;14.16;55.98;101184.70;1835950;77;22282;-70
2021/09/05 06:55:20;;;;;;;4.33;1.90;;;;;;;14.21;55.37;101183.35;1845920;76;21222;-70
2021/09/05 06:57:47;;;;;;;3.77;2.50;;;;;;;14.25;55.16;101183.91;1831089;76;21982;-70
2021/09/05 07:00:14;;;;;;;4.20;2.40;;;;;;;14.31;54.94;101188.74;1826008;77;21929;-69
2021/09/05 07:02:41;;;;;;;3.43;2.10;;;;;;;14.37;54.98;101188.22;1820293;76;21386;-70
2021/09/05 07:05:10;;;;;;;4.57;1.80;;;;;;;14.43;54.36;101191.19;1827508;76;21381;-70
2021/09/05 07:07:36;;;;;;;5.13;2.00;;;;;;;14.49;53.36;101186.89;1841022;76;21777;-70
2021/09/05 07:10:06;;;;;;;5.60;2.00;;;;;;;14.57;52.40;101194.98;1845747;77;21957;-70
2021/09/05 07:12:32;;;;;;;5.53;2.30;;;;;;;14.63;51.45;101185.86;1839983;76;21462;-69
2021/09/05 07:14:59;;;;;;;4.07;2.20;;;;;;;14.76;52.28;101193.39;1841625;76;21358;-69
2021/09/05 07:17:28;;;;;;;4.93;2.27;;;;;;;14.84;51.13;101191.23;1841429;76;21405;-70
2021/09/05 07:19:54;;;;;;;5.20;2.30;;;;;;;14.87;50.27;101186.66;1826656;77;21428;-69
2021/09/05 07:22:22;;;;;;;3.23;2.23;;;;;;;14.91;50.19;101195.82;1831632;77;21453;-71
2021/09/05 07:24:49;;;;;;;3.47;2.00;;;;;;;14.91;50.19;101190.44;1839617;76;21997;-69
2021/09/05 07:27:16;;;;;;;3.97;2.10;;;;;;;14.93;49.33;101193.65;1850041;76;21724;-70
2021/09/05 07:29:44;;;;;;;3.40;1.87;;;;;;;14.90;49.03;101198.22;1837063;77;21680;-70
2021/09/05 07:32:12;;;;;;;4.90;1.40;;;;;;;14.90;48.51;101205.75;1824761;77;21606;-70
2021/09/05 07:34:39;;;;;;;2.13;1.23;;;;;;;14.84;46.21;101197.44;1838907;76;22283;-70
2021/09/05 07:37:06;;;;;;;2.70;1.50;;;;;;;14.84;46.21;101197.44;1836769;76;21560;-70
2021/09/05 07:39:32;;;;;;;4.37;1.57;;;;;;;14.87;46.32;101199.59;1835624;76;22760;-69
2021/09/05 07:41:59;;;;;;;2.97;1.63;;;;;;;14.91;46.16;101207.38;1840957;77;21704;-69
2021/09/05 07:44:26;;;;;;;4.50;2.00;;;;;;;14.96;45.78;101204.67;1835285;76;21691;-71
2021/09/05 07:46:53;;;;;;;4.40;2.00;;;;;;;14.97;46.26;101214.38;1843602;77;21663;-70
2021/09/05 07:49:20;;;;;;;4.03;2.07;;;;;;;14.91;46.73;101207.38;1845593;77;21684;-72
2021/09/05 07:51:47;;;;;;;2.80;1.60;;;;;;;14.93;46.81;101207.09;1843299;77;22223;-73
2021/09/05 07:54:14;;;;;;;2.63;1.30;;;;;;;15.00;46.10;101207.63;1829531;76;21725;-71
2021/09/05 07:56:41;;;;;;;2.23;1.30;;;;;;;15.10;44.35;101204.92;1834184;76;22292;-76
2021/09/05 07:59:08;;;;;;;2.37;1.10;;;;;;;15.13;43.88;101213.00;1837470;76;21733;-76
2021/09/05 08:01:34;;;;;;;2.67;1.23;;;;;;;15.23;43.42;101207.59;1830834;77;21993;-74
2021/09/05 08:04:01;;;;;;;2.67;1.27;;;;;;;15.37;42.57;101204.62;1827802;76;21952;-76
2021/09/05 08:06:28;;;;;;;3.83;1.40;;;;;;;15.49;42.36;101209.69;1845407;76;22177;-76
2021/09/05 08:08:57;;;;;;;2.00;1.10;;;;;;;15.59;42.68;101216.39;1843299;77;21733;-75
2021/09/05 08:11:27;;;;;;;4.63;1.20;;;;;;;15.67;41.38;101214.52;1844437;77;21780;-75
2021/09/05 08:13:54;;;;;;;3.33;1.10;;;;;;;15.70;41.81;101210.48;1825436;77;22325;-75
2021/09/05 08:16:21;;;;;;;1.90;1.07;;;;;;;15.77;41.16;101220.96;1839808;76;21757;-76
2021/09/05 08:18:48;;;;;;;2.80;1.10;;;;;;;15.81;40.87;101209.89;1842856;76;21682;-77
2021/09/05 08:21:14;;;;;;;2.13;0.97;;;;;;;15.79;39.90;101218.78;1838576;77;21717;-74
2021/09/05 08:23:40;;;;;;;1.73;1.10;;;;;;;15.79;40.53;101219.58;1837625;76;21783;-76
2021/09/05 08:26:10;;;;;;;1.97;1.10;;;;;;;15.83;40.37;101219.31;1764151;79;21713;-70
2021/09/05 08:28:36;;;;;;;3.10;1.50;;;;;;;15.92;39.54;101212.25;1800367;78;21785;-70
2021/09/05 08:31:02;;;;;;;1.80;1.10;;;;;;;16.00;39.81;101214.13;1760613;79;21701;-70
2021/09/05 08:33:29;;;;;;;1.60;1.00;;;;;;;16.05;40.14;101212.19;1791680;78;21703;-70
2021/09/05 08:35:55;;;;;;;2.93;1.30;;;;;;;16.12;38.23;101206.50;1777027;79;21691;-69
2021/09/05 08:38:23;;;;;;;2.80;1.30;;;;;;;16.12;38.23;101206.50;1797543;78;21234;-69
2021/09/05 08:40:50;;;;;;;2.37;1.30;;;;;;;16.18;38.51;101218.31;1792740;79;21689;-68
2021/09/05 08:43:20;;;;;;;2.67;1.13;;;;;;;16.18;38.51;101218.31;1838778;76;21172;-69
2021/09/05 08:45:48;;;;;;;4.20;1.33;;;;;;;16.25;38.19;101219.36;1842584;77;21696;-69
2021/09/05 08:48:17;;;;;;;2.87;1.30;;;;;;;16.32;37.85;101219.87;1840121;76;21021;-70
2021/09/05 08:50:47;;;;;;;2.73;1.20;;;;;;;16.40;37.53;101223.86;1838868;77;21050;-70
2021/09/05 08:53:13;;;;;;;3.13;1.60;;;;;;;16.45;37.08;101224.36;1825516;77;21092;-69
2021/09/05 08:55:41;;;;;;;1.97;1.00;;;;;;;16.48;37.50;101213.02;1824892;77;21159;-69
2021/09/05 08:58:07;;;;;;;2.17;1.20;;;;;;;16.54;37.30;101216.75;1834193;76;21081;-69
2021/09/05 09:00:34;;;;;;;2.33;1.30;;;;;;;16.63;37.96;101231.25;1843327;77;21074;-70
2021/09/05 09:03:01;;;;;;;2.07;1.20;;;;;;;16.70;36.82;101215.30;1834846;77;21030;-70
2021/09/05 09:05:40;;;;;;;3.93;1.40;;;;;;;16.76;37.15;101211.51;1820371;77;21348;-69
2021/09/05 09:08:11;;;;;;;1.98;1.20;;;;;;;16.82;36.74;101212.53;1837891;76;21081;-70
2021/09/05 09:10:53;;;;;;;7.30;1.50;;;;;;;16.95;36.53;101220.52;1840675;76;20999;-70
2021/09/05 09:13:31;;;;;;;2.57;1.53;;;;;;;17.07;35.85;101224.98;1847235;76;21077;-71
2021/09/05 09:16:09;;;;;;;2.77;1.50;;;;;;;17.15;36.03;101216.03;1837951;76;21703;-69
2021/09/05 09:18:39;;;;;;;3.13;1.10;;;;;;;17.25;36.43;101215.92;1842132;76;21073;-69
2021/09/05 09:21:08;;;;;;;3.63;1.90;;;;;;;17.33;36.31;101223.39;1840452;76;21786;-69
2021/09/05 09:23:37;;;;;;;2.60;1.47;;;;;;;17.24;35.15;101221.88;1828909;76;21046;-69
2021/09/05 09:26:14;;;;;;;1.90;1.10;;;;;;;17.07;35.39;101210.68;1831837;76;21038;-70
2021/09/05 09:28:47;;;;;;;3.27;1.40;;;;;;;16.98;35.77;101219.13;1833990;76;21042;-72
2021/09/05 09:31:21;;;;;;;2.17;1.10;;;;;;;17.02;36.22;101219.64;1833823;76;21022;-70
2021/09/05 09:33:57;;;;;;;4.77;1.40;;;;;;;17.04;36.51;101216.09;1841912;76;21102;-68
2021/09/05 09:36:29;;;;;;;2.57;1.30;;;;;;;16.99;36.36;101222.91;1830285;77;21018;-69
2021/09/05 09:39:05;;;;;;;3.90;1.27;;;;;;;16.96;36.41;101224.82;1833283;76;21010;-70
2021/09/05 09:41:37;;;;;;;3.27;1.40;;;;;;;17.11;36.68;101219.30;1843574;76;21116;-71
2021/09/05 09:44:12;;;;;;;;;;;;;;;17.30;35.73;101213.16;1838698;76;21018;-71
2021/09/05 09:46:39;;;;;;;3.93;1.30;;;;;;;17.32;35.64;101218.54;1842944;76;21121;-71
2021/09/05 09:49:10;;;;;;;3.13;1.40;;;;;;;17.19;35.64;101221.11;1842080;76;20992;-70
2021/09/05 09:51:37;;;;;;;2.10;1.13;;;;;;;17.01;36.42;101222.09;1824321;77;21125;-69
2021/09/05 09:54:04;;;;;;;2.13;1.20;;;;;;;16.86;36.41;101224.36;1821237;76;21570;-69
2021/09/05 09:56:32;;;;;;;2.00;1.07;;;;;;;16.74;37.30;101227.13;1840013;77;21133;-70
2021/09/05 09:59:02;;;;;;;3.47;1.20;;;;;;;16.64;37.38;101222.61;1837502;76;21754;-70
2021/09/05 10:01:31;;;;;;;1.82;1.05;;;;;;;16.50;36.75;101227.84;1836225;76;21019;-71
2021/09/05 10:04:00;;;;;;;3.07;1.20;;;;;;;16.48;37.28;101223.26;1834667;76;21094;-71
2021/09/05 10:06:33;;;;;;;4.50;1.30;;;;;;;16.53;36.20;101216.50;1838643;76;21014;-71
2021/09/05 10:09:06;;;;;;;2.37;1.10;;;;;;;16.67;36.43;101214.51;1836633;76;21609;-71
2021/09/05 10:11:35;;;;;;;3.20;1.40;;;;;;;16.88;36.87;101209.25;1839329;76;21073;-71
2021/09/05 10:14:01;;;;;;;2.17;0.97;;;;;;;17.11;37.03;101220.64;1833446;77;21389;-72
2021/09/05 10:16:29;;;;;;;3.27;1.03;;;;;;;17.35;34.63;101223.92;1830375;77;21019;-70
2021/09/05 10:19:04;;;;;;;2.50;1.10;;;;;;;17.52;34.30;101209.41;1832319;76;21649;-69
2021/09/05 10:21:34;;;;;;;3.27;1.10;;;;;;;17.74;34.29;101210.80;1846150;77;21097;-71
2021/09/05 10:24:01;;;;;;;2.07;1.07;;;;;;;18.00;32.89;101212.66;1810336;78;21475;-69
2021/09/05 10:26:29;;;;;;;1.93;1.00;;;;;;;18.08;33.70;101208.49;1842496;76;21517;-70
2021/09/05 10:29:01;;;;;;;4.07;1.20;;;;;;;18.15;33.64;101228.66;1845887;76;21249;-71
2021/09/05 10:31:31;;;;;;;2.90;1.20;;;;;;;18.10;32.83;101214.39;1818026;77;21066;-70
2021/09/05 10:33:59;;;;;;;2.80;1.00;;;;;;;17.86;32.86;101218.50;1829975;76;21027;-69
2021/09/05 10:36:27;;;;;;;1.77;1.00;;;;;;;17.63;33.66;101224.14;1795467;77;21513;-69
2021/09/05 10:39:05;;;;;;;2.70;1.00;;;;;;;17.42;33.61;101232.48;1840831;76;21529;-69
2021/09/05 10:41:36;;;;;;;4.03;1.43;;;;;;;17.11;34.93;101244.94;1836535;77;20997;-69
2021/09/05 10:44:05;;;;;;;3.43;1.30;;;;;;;16.62;42.05;101262.02;1803497;77;21036;-70
2021/09/05 10:46:42;;;;;;;3.43;1.30;;;;;;;15.90;46.42;101271.55;1824104;77;21643;-71
2021/09/05 10:49:10;;;;;;;3.50;1.23;;;;;;;15.10;48.68;101280.26;1845342;76;21059;-70
2021/09/05 10:51:40;;;;;;;3.27;1.13;;;;;;;14.44;51.92;101289.02;1831715;77;21777;-71
2021/09/05 10:54:12;;;;;;;2.70;1.20;;;;;;;14.02;52.56;101287.27;1833716;77;22161;-70
2021/09/05 10:56:43;;;;;;;2.77;1.10;;;;;;;13.77;53.56;101289.28;1843869;76;21698;-70
2021/09/05 10:59:19;;;;;;;2.42;1.00;;;;;;;13.59;51.90;101279.80;1846584;76;21450;-69
2021/09/05 11:01:53;;;;;;;2.10;1.10;;;;;;;13.58;52.43;101287.55;1833873;76;21135;-70
2021/09/05 11:04:24;;;;;;;2.93;1.00;;;;;;;13.58;53.36;101289.44;1835577;76;21274;-70
2021/09/05 11:07:03;;;;;;;1.77;0.90;;;;;;;13.66;53.28;101292.19;1849533;76;21257;-70
2021/09/05 11:09:35;;;;;;;2.50;1.20;;;;;;;13.77;52.38;101285.25;1818082;76;21751;-69
2021/09/05 11:12:25;;;;;;;2.33;0.90;;;;;;;13.97;52.08;101294.48;1844277;76;21291;-70
2021/09/05 11:14:55;;;;;;;1.90;0.85;;;;;;;14.19;52.20;101292.98;1847807;76;21756;-69
2021/09/05 11:17:31;;;;;;;1.90;0.80;;;;;;;14.53;51.02;101292.84;1841568;77;21187;-69
2021/09/05 11:20:04;;;;;;;1.90;0.83;;;;;;;14.82;47.66;101276.23;1839264;76;21358;-69
2021/09/05 11:22:37;;;;;;;2.60;1.20;;;;;;;15.11;46.40;101267.64;1817629;77;21463;-70
2021/09/05 11:25:29;;;;;;;1.10;0.80;;;;;;;15.37;45.90;101251.73;1844814;76;21081;-69
2021/09/05 11:28:07;;;;;;;1.20;0.80;;;;;;;15.52;45.43;101275.11;1828126;76;21672;-69
2021/09/05 11:30:37;;;;;;;1.60;0.90;;;;;;;15.53;43.46;101275.91;1837875;76;22857;-70
2021/09/05 11:33:09;;;;;;;1.92;0.93;;;;;;;15.53;43.46;101275.91;1840010;77;21719;-69
2021/09/05 11:35:46;;;;;;;1.43;0.73;;;;;;;15.77;44.16;101263.51;1843453;76;21601;-69
2021/09/05 11:38:17;;;;;;;1.43;0.80;;;;;;;15.77;44.16;101263.51;1820582;76;21694;-69
2021/09/05 11:40:52;;;;;;;1.43;0.80;;;;;;;15.99;42.31;101265.03;1837212;76;22154;-69